sensor_id;sensor_type;location;lat;lon;timestamp;pressure;altitude;pressure_sealevel;temperature;humidity
69214;BME280;56325;47.030;18.518;2023-04-27T00:02:31;100661.03;;;7.76;54.82
69214;BME280;56325;47.030;18.518;2023-04-27T00:05:07;100664.37;;;7.67;54.10
69214;BME280;56325;47.030;18.518;2023-04-27T00:07:44;100660.69;;;7.57;54.68
69214;BME280;56325;47.030;18.518;2023-04-27T00:10:19;100664.53;;;7.44;54.37
69214;BME280;56325;47.030;18.518;2023-04-27T00:12:53;100673.91;;;7.27;55.34
69214;BME280;56325;47.030;18.518;2023-04-27T00:15:28;100667.94;;;7.32;55.54
69214;BME280;56325;47.030;18.518;2023-04-27T00:18:03;100665.09;;;7.19;55.90
69214;BME280;56325;47.030;18.518;2023-04-27T00:20:37;100667.41;;;7.20;56.03
69214;BME280;56325;47.030;18.518;2023-04-27T00:23:14;100663.25;;;7.32;56.08
69214;BME280;56325;47.030;18.518;2023-04-27T00:25:48;100653.41;;;7.35;56.27
69214;BME280;56325;47.030;18.518;2023-04-27T00:28:23;100658.56;;;7.49;55.44
69214;BME280;56325;47.030;18.518;2023-04-27T00:30:57;100671.37;;;7.36;55.73
69214;BME280;56325;47.030;18.518;2023-04-27T00:33:32;100661.28;;;7.33;55.81
69214;BME280;56325;47.030;18.518;2023-04-27T00:36:07;100665.97;;;7.32;56.52
69214;BME280;56325;47.030;18.518;2023-04-27T00:38:43;100660.41;;;7.36;56.19
69214;BME280;56325;47.030;18.518;2023-04-27T00:41:18;100662.56;;;7.44;55.60
69214;BME280;56325;47.030;18.518;2023-04-27T00:43:52;100663.91;;;7.20;56.22
69214;BME280;56325;47.030;18.518;2023-04-27T00:46:28;100664.91;;;7.10;56.13
69214;BME280;56325;47.030;18.518;2023-04-27T00:49:03;100668.78;;;6.76;57.21
69214;BME280;56325;47.030;18.518;2023-04-27T00:51:38;100668.22;;;6.65;57.61
69214;BME280;56325;47.030;18.518;2023-04-27T00:54:14;100663.44;;;6.30;59.22
69214;BME280;56325;47.030;18.518;2023-04-27T00:56:49;100662.59;;;6.33;59.64
69214;BME280;56325;47.030;18.518;2023-04-27T00:59:24;100658.75;;;6.30;59.99
69214;BME280;56325;47.030;18.518;2023-04-27T01:01:59;100662.25;;;6.31;60.69
69214;BME280;56325;47.030;18.518;2023-04-27T01:04:34;100670.09;;;6.29;60.65
69214;BME280;56325;47.030;18.518;2023-04-27T01:07:09;100660.34;;;6.28;60.54
69214;BME280;56325;47.030;18.518;2023-04-27T01:09:45;100670.00;;;6.12;60.73
69214;BME280;56325;47.030;18.518;2023-04-27T01:12:20;100668.47;;;6.31;60.16
69214;BME280;56325;47.030;18.518;2023-04-27T01:14:54;100673.97;;;6.08;60.70
69214;BME280;56325;47.030;18.518;2023-04-27T01:17:29;100668.75;;;6.17;60.64
69214;BME280;56325;47.030;18.518;2023-04-27T01:20:05;100669.84;;;6.00;61.50
69214;BME280;56325;47.030;18.518;2023-04-27T01:22:43;100668.25;;;6.22;61.38
69214;BME280;56325;47.030;18.518;2023-04-27T01:25:19;100673.09;;;6.34;61.06
69214;BME280;56325;47.030;18.518;2023-04-27T01:27:54;100680.25;;;6.28;61.34
69214;BME280;56325;47.030;18.518;2023-04-27T01:30:28;100671.28;;;6.47;60.87
69214;BME280;56325;47.030;18.518;2023-04-27T01:33:03;100671.91;;;6.35;61.93
69214;BME280;56325;47.030;18.518;2023-04-27T01:35:38;100680.03;;;6.39;61.58
69214;BME280;56325;47.030;18.518;2023-04-27T01:38:13;100671.66;;;6.49;61.58
69214;BME280;56325;47.030;18.518;2023-04-27T01:40:50;100669.06;;;6.62;60.89
69214;BME280;56325;47.030;18.518;2023-04-27T01:43:25;100672.13;;;6.64;60.24
69214;BME280;56325;47.030;18.518;2023-04-27T01:46:04;100677.66;;;6.61;60.39
69214;BME280;56325;47.030;18.518;2023-04-27T01:48:40;100680.41;;;6.41;59.91
69214;BME280;56325;47.030;18.518;2023-04-27T01:51:16;100674.44;;;6.26;60.80
69214;BME280;56325;47.030;18.518;2023-04-27T01:53:51;100666.94;;;6.30;60.86
69214;BME280;56325;47.030;18.518;2023-04-27T01:56:27;100669.12;;;6.58;60.72
69214;BME280;56325;47.030;18.518;2023-04-27T01:59:01;100664.69;;;6.84;60.32
69214;BME280;56325;47.030;18.518;2023-04-27T02:01:36;100677.59;;;6.84;59.62
69214;BME280;56325;47.030;18.518;2023-04-27T02:04:11;100675.72;;;6.81;59.51
69214;BME280;56325;47.030;18.518;2023-04-27T02:06:45;100682.84;;;6.75;59.09
69214;BME280;56325;47.030;18.518;2023-04-27T02:09:20;100680.69;;;6.66;59.18
69214;BME280;56325;47.030;18.518;2023-04-27T02:11:56;100688.88;;;6.86;57.29
69214;BME280;56325;47.030;18.518;2023-04-27T02:14:31;100684.25;;;6.83;57.17
69214;BME280;56325;47.030;18.518;2023-04-27T02:17:06;100681.47;;;6.67;57.02
69214;BME280;56325;47.030;18.518;2023-04-27T02:19:40;100691.81;;;6.55;57.84
69214;BME280;56325;47.030;18.518;2023-04-27T02:22:16;100693.72;;;6.58;57.36
69214;BME280;56325;47.030;18.518;2023-04-27T02:24:50;100693.16;;;6.67;57.67
69214;BME280;56325;47.030;18.518;2023-04-27T02:27:26;100687.34;;;6.65;58.54
69214;BME280;56325;47.030;18.518;2023-04-27T02:30:04;100682.66;;;6.66;57.34
69214;BME280;56325;47.030;18.518;2023-04-27T02:32:39;100683.22;;;6.77;58.14
69214;BME280;56325;47.030;18.518;2023-04-27T02:35:14;100685.47;;;6.98;57.20
69214;BME280;56325;47.030;18.518;2023-04-27T02:37:48;100687.19;;;6.92;57.20
69214;BME280;56325;47.030;18.518;2023-04-27T02:40:23;100684.78;;;6.94;57.77
69214;BME280;56325;47.030;18.518;2023-04-27T02:42:59;100677.87;;;6.89;58.27
69214;BME280;56325;47.030;18.518;2023-04-27T02:45:36;100680.34;;;6.84;58.46
69214;BME280;56325;47.030;18.518;2023-04-27T02:48:11;100682.75;;;6.98;57.46
69214;BME280;56325;47.030;18.518;2023-04-27T02:50:45;100682.25;;;7.03;56.41
69214;BME280;56325;47.030;18.518;2023-04-27T02:53:20;100699.88;;;6.82;57.29
69214;BME280;56325;47.030;18.518;2023-04-27T02:55:54;100706.75;;;6.51;58.91
69214;BME280;56325;47.030;18.518;2023-04-27T02:58:31;100708.16;;;6.16;60.40
69214;BME280;56325;47.030;18.518;2023-04-27T03:01:06;100708.69;;;6.07;61.20
69214;BME280;56325;47.030;18.518;2023-04-27T03:03:44;100710.84;;;5.96;61.82
69214;BME280;56325;47.030;18.518;2023-04-27T03:06:19;100715.91;;;5.98;61.43
69214;BME280;56325;47.030;18.518;2023-04-27T03:08:54;100717.81;;;6.01;61.64
69214;BME280;56325;47.030;18.518;2023-04-27T03:11:28;100714.59;;;6.06;62.19
69214;BME280;56325;47.030;18.518;2023-04-27T03:14:05;100720.53;;;6.01;62.08
69214;BME280;56325;47.030;18.518;2023-04-27T03:16:39;100722.53;;;5.97;62.45
69214;BME280;56325;47.030;18.518;2023-04-27T03:19:14;100720.81;;;6.06;62.56
69214;BME280;56325;47.030;18.518;2023-04-27T03:21:48;100726.62;;;6.08;62.58
69214;BME280;56325;47.030;18.518;2023-04-27T03:24:23;100721.34;;;6.21;61.98
69214;BME280;56325;47.030;18.518;2023-04-27T03:26:58;100723.47;;;6.10;62.55
69214;BME280;56325;47.030;18.518;2023-04-27T03:29:35;100731.97;;;6.15;62.23
69214;BME280;56325;47.030;18.518;2023-04-27T03:32:10;100724.13;;;6.17;61.78
69214;BME280;56325;47.030;18.518;2023-04-27T03:34:44;100734.91;;;6.05;62.42
69214;BME280;56325;47.030;18.518;2023-04-27T03:37:19;100741.81;;;6.09;62.31
69214;BME280;56325;47.030;18.518;2023-04-27T03:39:54;100740.47;;;5.98;62.22
69214;BME280;56325;47.030;18.518;2023-04-27T03:42:28;100732.28;;;5.98;62.80
69214;BME280;56325;47.030;18.518;2023-04-27T03:45:06;100741.53;;;6.04;62.34
69214;BME280;56325;47.030;18.518;2023-04-27T03:47:40;100735.09;;;6.14;61.98
69214;BME280;56325;47.030;18.518;2023-04-27T03:50:15;100749.50;;;5.95;62.54
69214;BME280;56325;47.030;18.518;2023-04-27T03:52:50;100750.16;;;6.02;62.55
69214;BME280;56325;47.030;18.518;2023-04-27T03:55:24;100749.78;;;6.00;62.66
69214;BME280;56325;47.030;18.518;2023-04-27T03:57:59;100751.75;;;5.73;63.15
69214;BME280;56325;47.030;18.518;2023-04-27T04:00:35;100755.41;;;5.89;63.10
69214;BME280;56325;47.030;18.518;2023-04-27T04:03:11;100752.88;;;6.02;63.12
69214;BME280;56325;47.030;18.518;2023-04-27T04:05:45;100760.28;;;6.02;63.45
69214;BME280;56325;47.030;18.518;2023-04-27T04:08:20;100760.75;;;5.97;63.16
69214;BME280;56325;47.030;18.518;2023-04-27T04:10:55;100765.25;;;6.07;63.46
69214;BME280;56325;47.030;18.518;2023-04-27T04:13:30;100761.34;;;6.08;63.72
69214;BME280;56325;47.030;18.518;2023-04-27T04:16:07;100755.56;;;6.06;64.07
69214;BME280;56325;47.030;18.518;2023-04-27T04:18:44;100759.50;;;6.24;63.59
69214;BME280;56325;47.030;18.518;2023-04-27T04:21:18;100761.81;;;6.26;63.36
69214;BME280;56325;47.030;18.518;2023-04-27T04:23:53;100752.59;;;6.40;63.04
69214;BME280;56325;47.030;18.518;2023-04-27T04:26:28;100759.66;;;6.61;62.71
69214;BME280;56325;47.030;18.518;2023-04-27T04:29:03;100761.91;;;6.66;62.42
69214;BME280;56325;47.030;18.518;2023-04-27T04:31:39;100760.44;;;6.81;61.86
69214;BME280;56325;47.030;18.518;2023-04-27T04:34:14;100776.34;;;6.86;61.80
69214;BME280;56325;47.030;18.518;2023-04-27T04:36:49;100756.41;;;10.02;91.02
69214;BME280;56325;47.030;18.518;2023-04-27T04:39:24;100764.00;;;9.22;65.41
69214;BME280;56325;47.030;18.518;2023-04-27T04:42:03;100774.25;;;8.63;61.01
69214;BME280;56325;47.030;18.518;2023-04-27T04:44:38;100776.69;;;8.45;59.40
69214;BME280;56325;47.030;18.518;2023-04-27T04:47:14;100788.06;;;8.27;59.03
69214;BME280;56325;47.030;18.518;2023-04-27T04:49:50;100795.41;;;7.65;58.83
69214;BME280;56325;47.030;18.518;2023-04-27T04:52:25;100802.50;;;7.63;59.05
69214;BME280;56325;47.030;18.518;2023-04-27T04:54:59;100806.97;;;7.17;59.05
69214;BME280;56325;47.030;18.518;2023-04-27T04:57:34;100795.06;;;9.18;88.79
69214;BME280;56325;47.030;18.518;2023-04-27T05:00:11;100796.53;;;9.61;67.28
69214;BME280;56325;47.030;18.518;2023-04-27T05:02:47;100802.44;;;7.82;59.63
69214;BME280;56325;47.030;18.518;2023-04-27T05:05:24;100800.38;;;9.76;85.32
69214;BME280;56325;47.030;18.518;2023-04-27T05:07:58;100800.06;;;10.00;63.75
69214;BME280;56325;47.030;18.518;2023-04-27T05:10:33;100802.19;;;8.87;59.97
69214;BME280;56325;47.030;18.518;2023-04-27T05:13:07;100815.97;;;8.22;61.25
69214;BME280;56325;47.030;18.518;2023-04-27T05:15:42;100814.22;;;7.63;62.06
69214;BME280;56325;47.030;18.518;2023-04-27T05:18:19;100820.50;;;7.24;62.43
69214;BME280;56325;47.030;18.518;2023-04-27T05:20:54;100825.06;;;7.11;61.78
69214;BME280;56325;47.030;18.518;2023-04-27T05:23:29;100820.72;;;7.13;61.72
69214;BME280;56325;47.030;18.518;2023-04-27T05:26:10;100828.78;;;7.20;61.39
69214;BME280;56325;47.030;18.518;2023-04-27T05:28:44;100817.53;;;10.06;83.48
69214;BME280;56325;47.030;18.518;2023-04-27T05:31:21;100812.31;;;11.24;75.81
69214;BME280;56325;47.030;18.518;2023-04-27T05:33:57;100813.56;;;10.32;55.71
69214;BME280;56325;47.030;18.518;2023-04-27T05:36:32;100821.16;;;9.52;56.00
69214;BME280;56325;47.030;18.518;2023-04-27T05:39:06;100821.34;;;9.03;56.64
69214;BME280;56325;47.030;18.518;2023-04-27T05:41:41;100825.06;;;8.51;57.58
69214;BME280;56325;47.030;18.518;2023-04-27T05:44:15;100828.75;;;8.29;57.48
69214;BME280;56325;47.030;18.518;2023-04-27T05:46:50;100825.78;;;8.39;57.70
69214;BME280;56325;47.030;18.518;2023-04-27T05:49:26;100827.88;;;8.64;56.90
69214;BME280;56325;47.030;18.518;2023-04-27T05:52:00;100831.94;;;8.60;57.57
69214;BME280;56325;47.030;18.518;2023-04-27T05:54:36;100838.00;;;8.96;56.69
69214;BME280;56325;47.030;18.518;2023-04-27T05:57:10;100830.47;;;8.55;57.11
69214;BME280;56325;47.030;18.518;2023-04-27T05:59:45;100835.69;;;8.95;56.40
69214;BME280;56325;47.030;18.518;2023-04-27T06:02:53;100832.47;;;9.79;54.88
69214;BME280;56325;47.030;18.518;2023-04-27T06:05:28;100832.47;;;9.79;54.88
69214;BME280;56325;47.030;18.518;2023-04-27T06:08:03;100845.91;;;10.28;77.88
69214;BME280;56325;47.030;18.518;2023-04-27T06:10:38;100824.63;;;12.62;74.54
69214;BME280;56325;47.030;18.518;2023-04-27T06:13:13;100836.87;;;11.93;53.62
69214;BME280;56325;47.030;18.518;2023-04-27T06:15:48;100834.34;;;11.02;54.51
69214;BME280;56325;47.030;18.518;2023-04-27T06:18:24;100838.59;;;10.81;52.85
69214;BME280;56325;47.030;18.518;2023-04-27T06:20:59;100843.00;;;10.44;52.67
69214;BME280;56325;47.030;18.518;2023-04-27T06:23:34;100847.75;;;10.31;53.63
69214;BME280;56325;47.030;18.518;2023-04-27T06:26:09;100842.81;;;10.01;53.25
69214;BME280;56325;47.030;18.518;2023-04-27T06:28:43;100841.03;;;10.07;53.01
69214;BME280;56325;47.030;18.518;2023-04-27T06:31:19;100840.59;;;9.96;52.73
69214;BME280;56325;47.030;18.518;2023-04-27T06:33:55;100832.69;;;9.98;52.08
69214;BME280;56325;47.030;18.518;2023-04-27T06:36:29;100839.28;;;10.00;51.72
69214;BME280;56325;47.030;18.518;2023-04-27T06:39:04;100844.03;;;10.25;51.48
69214;BME280;56325;47.030;18.518;2023-04-27T06:41:38;100840.94;;;10.23;50.75
69214;BME280;56325;47.030;18.518;2023-04-27T06:44:17;100841.22;;;10.50;50.87
69214;BME280;56325;47.030;18.518;2023-04-27T06:46:52;100853.22;;;10.44;50.47
69214;BME280;56325;47.030;18.518;2023-04-27T06:49:28;100849.00;;;10.65;49.86
69214;BME280;56325;47.030;18.518;2023-04-27T06:52:04;100849.12;;;10.48;50.42
69214;BME280;56325;47.030;18.518;2023-04-27T06:54:39;100853.75;;;10.51;49.41
69214;BME280;56325;47.030;18.518;2023-04-27T06:57:14;100848.47;;;10.57;49.70
69214;BME280;56325;47.030;18.518;2023-04-27T06:59:50;100847.81;;;10.88;49.57
69214;BME280;56325;47.030;18.518;2023-04-27T07:02:24;100844.59;;;11.02;49.02
69214;BME280;56325;47.030;18.518;2023-04-27T07:05:00;100846.75;;;11.29;49.75
69214;BME280;56325;47.030;18.518;2023-04-27T07:07:35;100844.72;;;11.20;47.81
69214;BME280;56325;47.030;18.518;2023-04-27T07:10:10;100846.16;;;11.34;48.73
69214;BME280;56325;47.030;18.518;2023-04-27T07:12:45;100848.44;;;11.57;46.83
69214;BME280;56325;47.030;18.518;2023-04-27T07:15:20;100843.94;;;11.72;47.35
69214;BME280;56325;47.030;18.518;2023-04-27T07:17:55;100849.22;;;11.36;47.24
69214;BME280;56325;47.030;18.518;2023-04-27T07:20:31;100847.00;;;11.74;47.43
69214;BME280;56325;47.030;18.518;2023-04-27T07:23:06;100845.16;;;11.93;46.22
69214;BME280;56325;47.030;18.518;2023-04-27T07:25:40;100852.66;;;11.71;44.46
69214;BME280;56325;47.030;18.518;2023-04-27T07:28:15;100846.00;;;11.81;53.74
69214;BME280;56325;47.030;18.518;2023-04-27T07:30:50;100847.37;;;14.05;64.06
69214;BME280;56325;47.030;18.518;2023-04-27T07:33:25;100839.38;;;14.40;55.64
69214;BME280;56325;47.030;18.518;2023-04-27T07:36:01;100844.66;;;13.63;40.76
69214;BME280;56325;47.030;18.518;2023-04-27T07:38:36;100851.00;;;13.18;39.09
69214;BME280;56325;47.030;18.518;2023-04-27T07:41:11;100845.16;;;12.70;39.95
69214;BME280;56325;47.030;18.518;2023-04-27T07:43:46;100852.75;;;12.29;40.85
69214;BME280;56325;47.030;18.518;2023-04-27T07:46:21;100849.75;;;12.64;41.19
69214;BME280;56325;47.030;18.518;2023-04-27T07:48:56;100859.72;;;12.70;41.39
69214;BME280;56325;47.030;18.518;2023-04-27T07:51:34;100862.16;;;12.59;40.21
69214;BME280;56325;47.030;18.518;2023-04-27T07:54:08;100860.19;;;12.60;40.87
69214;BME280;56325;47.030;18.518;2023-04-27T07:56:43;100856.78;;;12.46;39.71
69214;BME280;56325;47.030;18.518;2023-04-27T07:59:18;100854.25;;;12.21;40.69
69214;BME280;56325;47.030;18.518;2023-04-27T08:01:52;100860.00;;;12.45;40.34
69214;BME280;56325;47.030;18.518;2023-04-27T08:04:43;100855.31;;;12.82;38.81
69214;BME280;56325;47.030;18.518;2023-04-27T08:07:20;100866.59;;;12.57;38.59
69214;BME280;56325;47.030;18.518;2023-04-27T08:09:55;100857.75;;;12.80;41.54
69214;BME280;56325;47.030;18.518;2023-04-27T08:12:29;100847.03;;;13.19;40.15
69214;BME280;56325;47.030;18.518;2023-04-27T08:15:07;100844.53;;;13.48;39.40
69214;BME280;56325;47.030;18.518;2023-04-27T08:17:41;100855.41;;;13.52;38.96
69214;BME280;56325;47.030;18.518;2023-04-27T08:20:16;100844.25;;;13.28;40.11
69214;BME280;56325;47.030;18.518;2023-04-27T08:22:52;100850.16;;;13.72;40.90
69214;BME280;56325;47.030;18.518;2023-04-27T08:25:27;100860.13;;;13.69;37.28
69214;BME280;56325;47.030;18.518;2023-04-27T08:28:01;100840.50;;;13.58;36.00
69214;BME280;56325;47.030;18.518;2023-04-27T08:30:36;100851.25;;;13.65;36.88
69214;BME280;56325;47.030;18.518;2023-04-27T08:33:10;100857.50;;;13.75;36.43
69214;BME280;56325;47.030;18.518;2023-04-27T08:35:45;100846.97;;;13.46;36.14
69214;BME280;56325;47.030;18.518;2023-04-27T08:38:21;100851.84;;;13.69;38.02
69214;BME280;56325;47.030;18.518;2023-04-27T08:40:57;100860.44;;;14.04;36.46
69214;BME280;56325;47.030;18.518;2023-04-27T08:43:50;100849.88;;;14.27;37.42
69214;BME280;56325;47.030;18.518;2023-04-27T08:46:26;100856.50;;;14.29;38.51
69214;BME280;56325;47.030;18.518;2023-04-27T08:49:00;100853.44;;;14.27;36.61
69214;BME280;56325;47.030;18.518;2023-04-27T08:51:35;100865.25;;;13.95;36.19
69214;BME280;56325;47.030;18.518;2023-04-27T08:54:11;100853.63;;;14.15;36.92
69214;BME280;56325;47.030;18.518;2023-04-27T08:56:45;100857.44;;;14.26;36.18
69214;BME280;56325;47.030;18.518;2023-04-27T08:59:20;100851.81;;;14.11;37.92
69214;BME280;56325;47.030;18.518;2023-04-27T09:01:55;100846.00;;;14.33;36.92
69214;BME280;56325;47.030;18.518;2023-04-27T09:04:37;100842.00;;;14.82;37.35
69214;BME280;56325;47.030;18.518;2023-04-27T09:07:12;100839.00;;;14.56;36.00
69214;BME280;56325;47.030;18.518;2023-04-27T09:09:49;100836.63;;;14.64;37.38
69214;BME280;56325;47.030;18.518;2023-04-27T09:12:25;100833.56;;;15.00;36.06
69214;BME280;56325;47.030;18.518;2023-04-27T09:15:00;100833.63;;;14.91;35.92
69214;BME280;56325;47.030;18.518;2023-04-27T09:17:35;100828.44;;;15.52;37.18
69214;BME280;56325;47.030;18.518;2023-04-27T09:20:11;100828.50;;;14.99;36.28
69214;BME280;56325;47.030;18.518;2023-04-27T09:22:47;100831.22;;;14.13;37.92
69214;BME280;56325;47.030;18.518;2023-04-27T09:25:25;100849.12;;;14.26;37.60
69214;BME280;56325;47.030;18.518;2023-04-27T09:28:00;100836.56;;;14.49;45.64
69214;BME280;56325;47.030;18.518;2023-04-27T14:03:33;100723.00;;;19.99;28.32
69214;BME280;56325;47.030;18.518;2023-04-27T14:06:09;100723.00;;;19.99;28.32
69214;BME280;56325;47.030;18.518;2023-04-27T14:08:43;100735.53;;;18.75;29.52
69214;BME280;56325;47.030;18.518;2023-04-27T14:11:18;100743.28;;;18.49;28.58
69214;BME280;56325;47.030;18.518;2023-04-27T14:13:53;100752.09;;;17.82;30.71
69214;BME280;56325;47.030;18.518;2023-04-27T14:16:27;100745.31;;;18.54;32.38
69214;BME280;56325;47.030;18.518;2023-04-27T14:19:04;100729.97;;;19.09;28.37
69214;BME280;56325;47.030;18.518;2023-04-27T14:21:38;100751.47;;;18.69;28.82
69214;BME280;56325;47.030;18.518;2023-04-27T14:24:12;100753.91;;;17.91;30.32
69214;BME280;56325;47.030;18.518;2023-04-27T14:26:47;100749.66;;;18.01;29.69
69214;BME280;56325;47.030;18.518;2023-04-27T14:29:23;100740.12;;;18.24;28.97
69214;BME280;56325;47.030;18.518;2023-04-27T14:32:12;100731.72;;;18.73;29.84
69214;BME280;56325;47.030;18.518;2023-04-27T21:54:27;100948.56;;;10.60;57.30
69214;BME280;56325;47.030;18.518;2023-04-27T21:57:03;100948.56;;;10.60;57.30
69214;BME280;56325;47.030;18.518;2023-04-27T21:59:38;100956.91;;;9.35;60.01
69214;BME280;56325;47.030;18.518;2023-04-27T22:03:13;100959.31;;;9.33;59.76
69214;BME280;56325;47.030;18.518;2023-04-27T22:05:48;100959.31;;;9.33;59.76
69214;BME280;56325;47.030;18.518;2023-04-27T22:08:24;100970.78;;;8.82;60.50
69214;BME280;56325;47.030;18.518;2023-04-27T22:10:59;100970.69;;;8.70;60.31
69214;BME280;56325;47.030;18.518;2023-04-27T22:13:34;100962.81;;;10.04;83.03
69214;BME280;56325;47.030;18.518;2023-04-27T22:16:09;100957.97;;;11.31;72.53
69214;BME280;56325;47.030;18.518;2023-04-27T22:18:47;100957.66;;;9.51;59.89
69214;BME280;56325;47.030;18.518;2023-04-27T22:21:21;100966.22;;;8.76;60.39
69214;BME280;56325;47.030;18.518;2023-04-27T22:23:56;100971.16;;;8.32;61.47
69214;BME280;56325;47.030;18.518;2023-04-27T22:26:31;100975.06;;;8.31;61.54
69214;BME280;56325;47.030;18.518;2023-04-27T22:29:05;100978.63;;;8.12;62.25
69214;BME280;56325;47.030;18.518;2023-04-27T22:31:40;100981.38;;;8.12;62.22
69214;BME280;56325;47.030;18.518;2023-04-27T22:34:16;100978.78;;;8.05;62.51
69214;BME280;56325;47.030;18.518;2023-04-27T22:36:51;100974.25;;;8.14;62.17
69214;BME280;56325;47.030;18.518;2023-04-27T22:39:26;100968.28;;;8.39;61.13
69214;BME280;56325;47.030;18.518;2023-04-27T22:42:01;100980.03;;;8.20;61.53
69214;BME280;56325;47.030;18.518;2023-04-27T22:44:35;100987.91;;;7.98;62.30
69214;BME280;56325;47.030;18.518;2023-04-27T22:47:10;100978.91;;;7.98;62.27
69214;BME280;56325;47.030;18.518;2023-04-27T22:49:46;100986.34;;;8.17;61.44
69214;BME280;56325;47.030;18.518;2023-04-27T22:52:21;100985.56;;;8.16;62.05
69214;BME280;56325;47.030;18.518;2023-04-27T22:54:56;100991.06;;;7.97;63.03
69214;BME280;56325;47.030;18.518;2023-04-27T22:57:31;100990.84;;;7.87;63.07
69214;BME280;56325;47.030;18.518;2023-04-27T23:00:07;100981.84;;;8.27;61.59
69214;BME280;56325;47.030;18.518;2023-04-27T23:02:44;100986.41;;;8.13;60.75
69214;BME280;56325;47.030;18.518;2023-04-27T23:05:21;100991.06;;;8.36;60.78
69214;BME280;56325;47.030;18.518;2023-04-27T23:07:55;100991.06;;;8.36;60.61
69214;BME280;56325;47.030;18.518;2023-04-27T23:10:30;100994.13;;;8.18;61.10
69214;BME280;56325;47.030;18.518;2023-04-27T23:13:07;100997.66;;;8.19;61.17
69214;BME280;56325;47.030;18.518;2023-04-27T23:15:43;100983.25;;;8.15;61.29
69214;BME280;56325;47.030;18.518;2023-04-27T23:18:17;100976.84;;;8.21;61.27
69214;BME280;56325;47.030;18.518;2023-04-27T23:20:53;100977.00;;;8.34;60.51
69214;BME280;56325;47.030;18.518;2023-04-27T23:23:28;100980.63;;;8.47;59.74
69214;BME280;56325;47.030;18.518;2023-04-27T23:26:10;100989.78;;;8.21;60.22
69214;BME280;56325;47.030;18.518;2023-04-27T23:28:46;100982.25;;;8.25;60.39
69214;BME280;56325;47.030;18.518;2023-04-27T23:31:21;100987.34;;;8.07;60.97
69214;BME280;56325;47.030;18.518;2023-04-27T23:33:56;100977.22;;;8.04;61.30
69214;BME280;56325;47.030;18.518;2023-04-27T23:36:32;100990.50;;;8.05;61.30
69214;BME280;56325;47.030;18.518;2023-04-27T23:39:07;100981.41;;;7.72;62.12
69214;BME280;56325;47.030;18.518;2023-04-27T23:41:42;100981.47;;;7.69;62.54
69214;BME280;56325;47.030;18.518;2023-04-27T23:44:16;100977.59;;;7.86;62.32
69214;BME280;56325;47.030;18.518;2023-04-27T23:46:51;100991.06;;;7.97;61.86
69214;BME280;56325;47.030;18.518;2023-04-27T23:49:26;100988.69;;;7.99;61.75
69214;BME280;56325;47.030;18.518;2023-04-27T23:52:02;100981.72;;;8.14;61.23
69214;BME280;56325;47.030;18.518;2023-04-27T23:54:37;100987.00;;;8.05;61.53
69214;BME280;56325;47.030;18.518;2023-04-27T23:57:13;100986.75;;;7.79;61.98
69214;BME280;56325;47.030;18.518;2023-04-27T23:59:48;100988.91;;;7.68;62.84
